sensor_id;sensor_type;location;lat;lon;timestamp;temperature;humidity
15481;DHT22;7842;50.904;6.670;2022-11-15T00:00:09;10.60;99.90
15481;DHT22;7842;50.904;6.670;2022-11-15T00:02:35;10.70;99.90
15481;DHT22;7842;50.904;6.670;2022-11-15T00:05:00;10.70;99.90
15481;DHT22;7842;50.904;6.670;2022-11-15T00:07:26;10.70;99.90
15481;DHT22;7842;50.904;6.670;2022-11-15T00:09:52;10.70;99.90
15481;DHT22;7842;50.904;6.670;2022-11-15T00:12:17;10.80;99.90
15481;DHT22;7842;50.904;6.670;2022-11-15T00:14:43;10.80;99.90
15481;DHT22;7842;50.904;6.670;2022-11-15T00:17:09;10.90;99.90
15481;DHT22;7842;50.904;6.670;2022-11-15T00:19:34;10.90;99.90
15481;DHT22;7842;50.904;6.670;2022-11-15T00:22:00;11.10;99.90
15481;DHT22;7842;50.904;6.670;2022-11-15T00:24:26;11.00;99.90
15481;DHT22;7842;50.904;6.670;2022-11-15T00:26:51;11.20;99.90
15481;DHT22;7842;50.904;6.670;2022-11-15T00:29:17;11.10;99.90
15481;DHT22;7842;50.904;6.670;2022-11-15T00:31:42;11.10;99.90
15481;DHT22;7842;50.904;6.670;2022-11-15T00:34:09;11.10;99.90
15481;DHT22;7842;50.904;6.670;2022-11-15T00:36:35;11.10;99.90
15481;DHT22;7842;50.904;6.670;2022-11-15T00:39:00;11.40;99.90
15481;DHT22;7842;50.904;6.670;2022-11-15T00:41:26;11.10;99.90
15481;DHT22;7842;50.904;6.670;2022-11-15T00:43:51;11.10;99.90
15481;DHT22;7842;50.904;6.670;2022-11-15T00:46:17;11.20;99.90
15481;DHT22;7842;50.904;6.670;2022-11-15T00:48:42;11.20;99.90
15481;DHT22;7842;50.904;6.670;2022-11-15T00:51:08;11.10;99.90
15481;DHT22;7842;50.904;6.670;2022-11-15T00:53:34;11.30;99.90
15481;DHT22;7842;50.904;6.670;2022-11-15T00:55:59;11.40;99.90
15481;DHT22;7842;50.904;6.670;2022-11-15T00:58:25;11.30;99.90
15481;DHT22;7842;50.904;6.670;2022-11-15T01:00:51;11.40;99.90
15481;DHT22;7842;50.904;6.670;2022-11-15T01:03:16;11.30;99.90
15481;DHT22;7842;50.904;6.670;2022-11-15T01:05:42;11.30;99.90
15481;DHT22;7842;50.904;6.670;2022-11-15T01:08:13;11.40;99.90
15481;DHT22;7842;50.904;6.670;2022-11-15T01:10:39;11.40;99.90
15481;DHT22;7842;50.904;6.670;2022-11-15T01:13:04;11.40;99.90
15481;DHT22;7842;50.904;6.670;2022-11-15T01:15:30;11.40;99.90
15481;DHT22;7842;50.904;6.670;2022-11-15T01:17:55;11.30;99.90
15481;DHT22;7842;50.904;6.670;2022-11-15T01:20:21;11.40;99.90
15481;DHT22;7842;50.904;6.670;2022-11-15T01:22:46;11.40;99.90
15481;DHT22;7842;50.904;6.670;2022-11-15T01:25:12;11.40;99.90
15481;DHT22;7842;50.904;6.670;2022-11-15T01:27:37;11.40;99.90
15481;DHT22;7842;50.904;6.670;2022-11-15T01:30:03;11.60;99.90
15481;DHT22;7842;50.904;6.670;2022-11-15T01:32:30;11.50;99.90
15481;DHT22;7842;50.904;6.670;2022-11-15T01:34:55;11.60;99.90
15481;DHT22;7842;50.904;6.670;2022-11-15T01:37:21;11.70;99.90
15481;DHT22;7842;50.904;6.670;2022-11-15T01:39:46;11.70;99.90
15481;DHT22;7842;50.904;6.670;2022-11-15T01:42:13;11.70;99.90
15481;DHT22;7842;50.904;6.670;2022-11-15T01:47:25;11.80;99.90
15481;DHT22;7842;50.904;6.670;2022-11-15T01:50:05;11.80;99.90
15481;DHT22;7842;50.904;6.670;2022-11-15T01:52:33;11.80;99.90
15481;DHT22;7842;50.904;6.670;2022-11-15T01:55:11;11.80;99.90
15481;DHT22;7842;50.904;6.670;2022-11-15T01:57:40;11.90;99.90
15481;DHT22;7842;50.904;6.670;2022-11-15T02:00:07;11.70;99.90
15481;DHT22;7842;50.904;6.670;2022-11-15T02:02:33;11.70;99.90
15481;DHT22;7842;50.904;6.670;2022-11-15T02:04:59;11.70;99.90
15481;DHT22;7842;50.904;6.670;2022-11-15T02:07:25;11.70;99.90
15481;DHT22;7842;50.904;6.670;2022-11-15T02:09:51;11.60;99.90
15481;DHT22;7842;50.904;6.670;2022-11-15T02:12:19;11.60;99.90
15481;DHT22;7842;50.904;6.670;2022-11-15T02:14:50;11.60;99.90
15481;DHT22;7842;50.904;6.670;2022-11-15T02:17:26;11.60;99.90
15481;DHT22;7842;50.904;6.670;2022-11-15T02:23:33;11.60;99.90
15481;DHT22;7842;50.904;6.670;2022-11-15T02:31:41;11.70;99.90
15481;DHT22;7842;50.904;6.670;2022-11-15T02:34:37;11.80;99.90
15481;DHT22;7842;50.904;6.670;2022-11-15T02:37:20;11.80;99.90
15481;DHT22;7842;50.904;6.670;2022-11-15T02:39:51;11.70;99.90
15481;DHT22;7842;50.904;6.670;2022-11-15T02:42:21;12.00;99.90
15481;DHT22;7842;50.904;6.670;2022-11-15T02:45:09;11.80;99.90
15481;DHT22;7842;50.904;6.670;2022-11-15T02:47:43;11.90;99.90
15481;DHT22;7842;50.904;6.670;2022-11-15T02:50:16;12.00;99.90
15481;DHT22;7842;50.904;6.670;2022-11-15T02:52:48;12.00;99.90
15481;DHT22;7842;50.904;6.670;2022-11-15T02:55:32;12.00;99.90
15481;DHT22;7842;50.904;6.670;2022-11-15T02:58:38;12.10;99.90
15481;DHT22;7842;50.904;6.670;2022-11-15T03:01:54;12.10;99.90
15481;DHT22;7842;50.904;6.670;2022-11-15T03:04:43;12.10;99.90
15481;DHT22;7842;50.904;6.670;2022-11-15T03:10:00;12.10;99.90
15481;DHT22;7842;50.904;6.670;2022-11-15T03:12:42;12.10;99.90
15481;DHT22;7842;50.904;6.670;2022-11-15T03:15:20;12.10;99.90
15481;DHT22;7842;50.904;6.670;2022-11-15T03:20:26;12.10;99.90
15481;DHT22;7842;50.904;6.670;2022-11-15T03:22:53;12.20;99.90
15481;DHT22;7842;50.904;6.670;2022-11-15T03:25:23;12.20;99.90
15481;DHT22;7842;50.904;6.670;2022-11-15T03:27:52;12.20;99.90
15481;DHT22;7842;50.904;6.670;2022-11-15T03:30:19;12.20;99.90
15481;DHT22;7842;50.904;6.670;2022-11-15T03:32:53;12.20;99.90
15481;DHT22;7842;50.904;6.670;2022-11-15T03:35:25;12.20;99.90
15481;DHT22;7842;50.904;6.670;2022-11-15T03:38:07;12.20;99.90
15481;DHT22;7842;50.904;6.670;2022-11-15T03:40:45;12.20;99.90
15481;DHT22;7842;50.904;6.670;2022-11-15T03:46:13;12.20;99.90
15481;DHT22;7842;50.904;6.670;2022-11-15T03:48:43;12.20;99.90
15481;DHT22;7842;50.904;6.670;2022-11-15T03:51:10;12.20;99.90
15481;DHT22;7842;50.904;6.670;2022-11-15T03:53:36;12.20;99.90
15481;DHT22;7842;50.904;6.670;2022-11-15T03:56:02;12.20;99.90
15481;DHT22;7842;50.904;6.670;2022-11-15T03:58:27;12.20;99.90
15481;DHT22;7842;50.904;6.670;2022-11-15T04:00:53;12.20;99.90
15481;DHT22;7842;50.904;6.670;2022-11-15T04:03:18;12.30;99.90
15481;DHT22;7842;50.904;6.670;2022-11-15T04:05:44;12.20;99.90
15481;DHT22;7842;50.904;6.670;2022-11-15T04:08:09;12.20;99.90
15481;DHT22;7842;50.904;6.670;2022-11-15T04:10:35;12.20;99.90
15481;DHT22;7842;50.904;6.670;2022-11-15T04:13:02;12.20;99.90
15481;DHT22;7842;50.904;6.670;2022-11-15T04:15:27;12.20;99.90
15481;DHT22;7842;50.904;6.670;2022-11-15T04:17:55;12.20;99.90
15481;DHT22;7842;50.904;6.670;2022-11-15T04:20:23;12.30;99.90
15481;DHT22;7842;50.904;6.670;2022-11-15T04:23:12;12.20;99.90
15481;DHT22;7842;50.904;6.670;2022-11-15T04:25:58;12.20;99.90
15481;DHT22;7842;50.904;6.670;2022-11-15T04:28:23;12.20;99.90
15481;DHT22;7842;50.904;6.670;2022-11-15T04:30:49;12.40;99.90
15481;DHT22;7842;50.904;6.670;2022-11-15T04:33:15;12.20;99.90
15481;DHT22;7842;50.904;6.670;2022-11-15T04:35:41;12.20;99.90
15481;DHT22;7842;50.904;6.670;2022-11-15T04:38:09;12.30;99.90
15481;DHT22;7842;50.904;6.670;2022-11-15T04:40:36;12.30;99.90
15481;DHT22;7842;50.904;6.670;2022-11-15T04:43:02;12.30;99.90
15481;DHT22;7842;50.904;6.670;2022-11-15T04:45:28;12.30;99.90
15481;DHT22;7842;50.904;6.670;2022-11-15T04:47:53;12.30;99.90
15481;DHT22;7842;50.904;6.670;2022-11-15T04:50:19;12.30;99.90
15481;DHT22;7842;50.904;6.670;2022-11-15T04:52:51;12.30;99.90
15481;DHT22;7842;50.904;6.670;2022-11-15T04:55:17;12.30;99.90
15481;DHT22;7842;50.904;6.670;2022-11-15T04:57:43;12.30;99.90
15481;DHT22;7842;50.904;6.670;2022-11-15T05:00:11;12.30;99.90
15481;DHT22;7842;50.904;6.670;2022-11-15T05:02:37;12.30;99.90
15481;DHT22;7842;50.904;6.670;2022-11-15T05:05:21;12.30;99.90
15481;DHT22;7842;50.904;6.670;2022-11-15T05:07:47;12.40;99.90
15481;DHT22;7842;50.904;6.670;2022-11-15T05:10:13;12.50;99.90
15481;DHT22;7842;50.904;6.670;2022-11-15T05:12:39;12.30;99.90
15481;DHT22;7842;50.904;6.670;2022-11-15T05:15:05;12.40;99.90
15481;DHT22;7842;50.904;6.670;2022-11-15T05:17:30;12.30;99.90
15481;DHT22;7842;50.904;6.670;2022-11-15T05:19:56;12.30;99.90
15481;DHT22;7842;50.904;6.670;2022-11-15T05:22:22;12.20;99.90
15481;DHT22;7842;50.904;6.670;2022-11-15T05:24:48;12.20;99.90
15481;DHT22;7842;50.904;6.670;2022-11-15T05:27:13;12.10;99.90
15481;DHT22;7842;50.904;6.670;2022-11-15T05:29:39;12.00;99.90
15481;DHT22;7842;50.904;6.670;2022-11-15T05:32:05;12.20;99.90
15481;DHT22;7842;50.904;6.670;2022-11-15T05:34:32;12.10;99.90
15481;DHT22;7842;50.904;6.670;2022-11-15T05:36:58;12.20;99.90
15481;DHT22;7842;50.904;6.670;2022-11-15T05:39:24;12.00;99.90
15481;DHT22;7842;50.904;6.670;2022-11-15T05:44:31;11.90;99.90
15481;DHT22;7842;50.904;6.670;2022-11-15T05:46:57;11.90;99.90
15481;DHT22;7842;50.904;6.670;2022-11-15T05:49:25;11.80;99.90
15481;DHT22;7842;50.904;6.670;2022-11-15T05:51:53;11.80;99.90
15481;DHT22;7842;50.904;6.670;2022-11-15T05:54:19;11.80;99.90
15481;DHT22;7842;50.904;6.670;2022-11-15T05:56:46;11.70;99.90
15481;DHT22;7842;50.904;6.670;2022-11-15T05:59:12;11.60;99.90
15481;DHT22;7842;50.904;6.670;2022-11-15T06:01:38;11.60;99.90
15481;DHT22;7842;50.904;6.670;2022-11-15T06:04:04;11.40;99.90
15481;DHT22;7842;50.904;6.670;2022-11-15T06:06:30;11.30;99.90
15481;DHT22;7842;50.904;6.670;2022-11-15T06:08:55;11.30;99.90
15481;DHT22;7842;50.904;6.670;2022-11-15T06:11:21;11.40;99.90
15481;DHT22;7842;50.904;6.670;2022-11-15T06:13:47;11.10;99.90
15481;DHT22;7842;50.904;6.670;2022-11-15T06:16:12;11.20;99.90
15481;DHT22;7842;50.904;6.670;2022-11-15T06:18:38;11.00;99.90
15481;DHT22;7842;50.904;6.670;2022-11-15T06:21:04;10.90;99.90
15481;DHT22;7842;50.904;6.670;2022-11-15T06:23:34;10.90;99.90
15481;DHT22;7842;50.904;6.670;2022-11-15T06:26:01;10.90;99.90
15481;DHT22;7842;50.904;6.670;2022-11-15T06:28:30;10.90;99.90
15481;DHT22;7842;50.904;6.670;2022-11-15T06:31:01;10.90;99.90
15481;DHT22;7842;50.904;6.670;2022-11-15T06:33:27;10.80;99.90
15481;DHT22;7842;50.904;6.670;2022-11-15T06:35:52;10.80;99.90
15481;DHT22;7842;50.904;6.670;2022-11-15T06:38:18;10.80;99.90
15481;DHT22;7842;50.904;6.670;2022-11-15T06:40:44;10.70;99.90
15481;DHT22;7842;50.904;6.670;2022-11-15T06:43:09;11.00;99.90
15481;DHT22;7842;50.904;6.670;2022-11-15T06:45:35;10.80;99.90
15481;DHT22;7842;50.904;6.670;2022-11-15T06:48:00;10.80;99.90
15481;DHT22;7842;50.904;6.670;2022-11-15T06:50:26;11.00;99.90
15481;DHT22;7842;50.904;6.670;2022-11-15T06:52:52;10.70;99.90
15481;DHT22;7842;50.904;6.670;2022-11-15T06:55:17;10.70;99.90
15481;DHT22;7842;50.904;6.670;2022-11-15T06:57:50;10.70;99.90
15481;DHT22;7842;50.904;6.670;2022-11-15T07:00:18;10.60;99.90
15481;DHT22;7842;50.904;6.670;2022-11-15T07:02:44;10.50;99.90
15481;DHT22;7842;50.904;6.670;2022-11-15T07:05:10;10.40;99.90
15481;DHT22;7842;50.904;6.670;2022-11-15T07:07:35;10.40;99.90
15481;DHT22;7842;50.904;6.670;2022-11-15T07:10:01;10.40;99.90
15481;DHT22;7842;50.904;6.670;2022-11-15T07:12:26;10.70;99.90
15481;DHT22;7842;50.904;6.670;2022-11-15T07:14:52;10.60;99.90
15481;DHT22;7842;50.904;6.670;2022-11-15T07:17:17;10.50;99.90
15481;DHT22;7842;50.904;6.670;2022-11-15T07:19:43;10.80;99.90
15481;DHT22;7842;50.904;6.670;2022-11-15T07:22:09;10.50;99.90
15481;DHT22;7842;50.904;6.670;2022-11-15T07:24:34;10.60;99.90
15481;DHT22;7842;50.904;6.670;2022-11-15T07:27:00;10.90;99.90
15481;DHT22;7842;50.904;6.670;2022-11-15T07:29:25;10.60;99.90
15481;DHT22;7842;50.904;6.670;2022-11-15T07:31:51;10.60;99.90
15481;DHT22;7842;50.904;6.670;2022-11-15T07:34:16;10.70;99.90
15481;DHT22;7842;50.904;6.670;2022-11-15T07:36:42;10.70;99.90
15481;DHT22;7842;50.904;6.670;2022-11-15T07:39:08;10.70;99.90
15481;DHT22;7842;50.904;6.670;2022-11-15T07:41:33;10.70;99.90
15481;DHT22;7842;50.904;6.670;2022-11-15T07:43:59;10.70;99.90
15481;DHT22;7842;50.904;6.670;2022-11-15T07:46:25;10.80;99.90
15481;DHT22;7842;50.904;6.670;2022-11-15T07:48:51;10.70;99.90
15481;DHT22;7842;50.904;6.670;2022-11-15T07:51:16;10.70;99.90
15481;DHT22;7842;50.904;6.670;2022-11-15T07:53:43;10.70;99.90
15481;DHT22;7842;50.904;6.670;2022-11-15T07:56:09;10.70;99.90
15481;DHT22;7842;50.904;6.670;2022-11-15T07:58:35;10.70;99.90
15481;DHT22;7842;50.904;6.670;2022-11-15T08:01:05;10.70;99.90
15481;DHT22;7842;50.904;6.670;2022-11-15T08:03:30;10.80;99.90
15481;DHT22;7842;50.904;6.670;2022-11-15T08:05:56;10.80;99.90
15481;DHT22;7842;50.904;6.670;2022-11-15T08:08:21;10.80;99.90
15481;DHT22;7842;50.904;6.670;2022-11-15T08:10:47;10.80;99.90
15481;DHT22;7842;50.904;6.670;2022-11-15T08:13:13;10.80;99.90
15481;DHT22;7842;50.904;6.670;2022-11-15T08:15:39;10.80;99.90
15481;DHT22;7842;50.904;6.670;2022-11-15T08:18:15;10.80;99.90
15481;DHT22;7842;50.904;6.670;2022-11-15T08:20:42;10.80;99.90
15481;DHT22;7842;50.904;6.670;2022-11-15T08:23:10;10.80;99.90
15481;DHT22;7842;50.904;6.670;2022-11-15T08:25:36;10.80;99.90
15481;DHT22;7842;50.904;6.670;2022-11-15T08:28:05;10.80;99.90
15481;DHT22;7842;50.904;6.670;2022-11-15T08:30:35;10.80;99.90
15481;DHT22;7842;50.904;6.670;2022-11-15T08:33:02;10.80;99.90
15481;DHT22;7842;50.904;6.670;2022-11-15T08:35:28;10.90;99.90
15481;DHT22;7842;50.904;6.670;2022-11-15T08:37:54;11.20;99.90
15481;DHT22;7842;50.904;6.670;2022-11-15T08:40:20;11.00;99.90
15481;DHT22;7842;50.904;6.670;2022-11-15T08:42:47;11.00;99.90
15481;DHT22;7842;50.904;6.670;2022-11-15T08:45:12;11.00;99.90
15481;DHT22;7842;50.904;6.670;2022-11-15T08:47:38;11.10;99.90
15481;DHT22;7842;50.904;6.670;2022-11-15T08:50:04;11.10;99.90
15481;DHT22;7842;50.904;6.670;2022-11-15T08:52:30;11.10;99.90
15481;DHT22;7842;50.904;6.670;2022-11-15T08:54:57;11.30;99.90
15481;DHT22;7842;50.904;6.670;2022-11-15T08:57:22;11.20;99.90
15481;DHT22;7842;50.904;6.670;2022-11-15T08:59:48;11.20;99.90
15481;DHT22;7842;50.904;6.670;2022-11-15T09:02:14;11.30;99.90
15481;DHT22;7842;50.904;6.670;2022-11-15T09:04:43;11.40;99.90
15481;DHT22;7842;50.904;6.670;2022-11-15T09:07:10;11.60;99.90
15481;DHT22;7842;50.904;6.670;2022-11-15T09:09:36;11.40;99.90
15481;DHT22;7842;50.904;6.670;2022-11-15T09:12:02;11.60;99.90
15481;DHT22;7842;50.904;6.670;2022-11-15T09:14:28;11.70;99.90
15481;DHT22;7842;50.904;6.670;2022-11-15T09:16:54;11.70;99.90
15481;DHT22;7842;50.904;6.670;2022-11-15T09:19:19;11.70;99.90
15481;DHT22;7842;50.904;6.670;2022-11-15T09:21:45;12.10;99.90
15481;DHT22;7842;50.904;6.670;2022-11-15T09:24:10;11.90;99.90
15481;DHT22;7842;50.904;6.670;2022-11-15T09:26:36;11.90;99.90
15481;DHT22;7842;50.904;6.670;2022-11-15T09:29:02;12.00;99.90
15481;DHT22;7842;50.904;6.670;2022-11-15T09:31:27;12.00;99.90
15481;DHT22;7842;50.904;6.670;2022-11-15T09:33:55;12.00;99.90
15481;DHT22;7842;50.904;6.670;2022-11-15T09:36:20;12.00;99.90
15481;DHT22;7842;50.904;6.670;2022-11-15T09:38:46;12.00;99.90
15481;DHT22;7842;50.904;6.670;2022-11-15T09:43:53;12.20;99.90
15481;DHT22;7842;50.904;6.670;2022-11-15T09:46:47;12.10;99.90
15481;DHT22;7842;50.904;6.670;2022-11-15T09:49:17;12.10;99.90
15481;DHT22;7842;50.904;6.670;2022-11-15T09:51:49;12.20;99.90
15481;DHT22;7842;50.904;6.670;2022-11-15T09:56:50;12.20;99.90
15481;DHT22;7842;50.904;6.670;2022-11-15T10:04:21;12.40;99.90
15481;DHT22;7842;50.904;6.670;2022-11-15T10:06:58;12.50;99.90
15481;DHT22;7842;50.904;6.670;2022-11-15T10:09:43;12.50;99.90
15481;DHT22;7842;50.904;6.670;2022-11-15T10:12:13;12.60;99.90
15481;DHT22;7842;50.904;6.670;2022-11-15T10:14:39;12.70;99.90
15481;DHT22;7842;50.904;6.670;2022-11-15T10:17:28;13.00;99.90
15481;DHT22;7842;50.904;6.670;2022-11-15T10:22:49;12.70;99.90
15481;DHT22;7842;50.904;6.670;2022-11-15T10:25:26;12.80;99.90
15481;DHT22;7842;50.904;6.670;2022-11-15T10:28:11;12.80;99.90
15481;DHT22;7842;50.904;6.670;2022-11-15T10:30:39;12.90;99.90
15481;DHT22;7842;50.904;6.670;2022-11-15T10:33:17;13.00;99.90
15481;DHT22;7842;50.904;6.670;2022-11-15T10:35:44;13.10;99.90
15481;DHT22;7842;50.904;6.670;2022-11-15T10:38:11;13.00;99.90
15481;DHT22;7842;50.904;6.670;2022-11-15T10:40:38;13.10;99.90
15481;DHT22;7842;50.904;6.670;2022-11-15T10:45:36;13.10;99.90
15481;DHT22;7842;50.904;6.670;2022-11-15T10:50:37;13.20;99.90
15481;DHT22;7842;50.904;6.670;2022-11-15T10:53:03;13.30;99.90
15481;DHT22;7842;50.904;6.670;2022-11-15T10:55:33;13.30;99.90
15481;DHT22;7842;50.904;6.670;2022-11-15T10:58:06;13.20;99.90
15481;DHT22;7842;50.904;6.670;2022-11-15T11:00:45;13.30;99.90
15481;DHT22;7842;50.904;6.670;2022-11-15T11:03:28;13.30;99.90
15481;DHT22;7842;50.904;6.670;2022-11-15T11:06:15;13.40;99.90
15481;DHT22;7842;50.904;6.670;2022-11-15T11:08:57;13.40;99.90
15481;DHT22;7842;50.904;6.670;2022-11-15T11:11:23;13.50;99.90
15481;DHT22;7842;50.904;6.670;2022-11-15T11:13:49;13.70;99.90
15481;DHT22;7842;50.904;6.670;2022-11-15T11:19:28;13.50;99.90
15481;DHT22;7842;50.904;6.670;2022-11-15T11:30:08;13.80;99.90
15481;DHT22;7842;50.904;6.670;2022-11-15T11:38:02;13.90;99.90
15481;DHT22;7842;50.904;6.670;2022-11-15T11:46:36;14.00;99.90
15481;DHT22;7842;50.904;6.670;2022-11-15T11:49:15;14.00;99.90
15481;DHT22;7842;50.904;6.670;2022-11-15T11:51:52;14.00;99.90
15481;DHT22;7842;50.904;6.670;2022-11-15T11:57:33;14.20;99.90
15481;DHT22;7842;50.904;6.670;2022-11-15T12:02:45;14.10;99.90
15481;DHT22;7842;50.904;6.670;2022-11-15T12:05:49;14.10;99.90
15481;DHT22;7842;50.904;6.670;2022-11-15T12:08:31;14.00;99.90
15481;DHT22;7842;50.904;6.670;2022-11-15T12:11:28;14.00;99.90
15481;DHT22;7842;50.904;6.670;2022-11-15T12:13:55;13.80;99.90
15481;DHT22;7842;50.904;6.670;2022-11-15T12:16:28;14.00;99.90
15481;DHT22;7842;50.904;6.670;2022-11-15T12:18:56;13.90;99.90
15481;DHT22;7842;50.904;6.670;2022-11-15T12:24:06;13.80;99.90
15481;DHT22;7842;50.904;6.670;2022-11-15T12:26:38;13.80;99.90
15481;DHT22;7842;50.904;6.670;2022-11-15T12:29:18;13.80;99.90
15481;DHT22;7842;50.904;6.670;2022-11-15T12:31:49;13.80;99.90
15481;DHT22;7842;50.904;6.670;2022-11-15T12:36:48;13.90;99.90
15481;DHT22;7842;50.904;6.670;2022-11-15T12:39:15;13.90;99.90
15481;DHT22;7842;50.904;6.670;2022-11-15T12:41:44;13.90;99.90
15481;DHT22;7842;50.904;6.670;2022-11-15T12:47:23;14.00;99.90
15481;DHT22;7842;50.904;6.670;2022-11-15T12:49:49;14.20;99.90
15481;DHT22;7842;50.904;6.670;2022-11-15T12:52:15;14.20;99.90
15481;DHT22;7842;50.904;6.670;2022-11-15T13:04:52;14.40;99.90
15481;DHT22;7842;50.904;6.670;2022-11-15T13:17:38;14.10;99.90
15481;DHT22;7842;50.904;6.670;2022-11-15T13:30:31;14.30;99.90
15481;DHT22;7842;50.904;6.670;2022-11-15T13:33:05;14.10;99.90
15481;DHT22;7842;50.904;6.670;2022-11-15T13:35:33;14.20;99.90
15481;DHT22;7842;50.904;6.670;2022-11-15T13:38:04;14.20;99.90
15481;DHT22;7842;50.904;6.670;2022-11-15T13:40:35;14.40;99.90
15481;DHT22;7842;50.904;6.670;2022-11-15T13:43:25;14.20;99.90
15481;DHT22;7842;50.904;6.670;2022-11-15T13:48:42;14.20;99.90
15481;DHT22;7842;50.904;6.670;2022-11-15T13:53:58;14.10;99.90
15481;DHT22;7842;50.904;6.670;2022-11-15T13:56:27;14.00;99.90
15481;DHT22;7842;50.904;6.670;2022-11-15T13:58:54;14.00;99.90
15481;DHT22;7842;50.904;6.670;2022-11-15T14:01:21;14.00;99.90
15481;DHT22;7842;50.904;6.670;2022-11-15T14:03:56;14.00;99.90
15481;DHT22;7842;50.904;6.670;2022-11-15T14:06:25;14.20;99.90
15481;DHT22;7842;50.904;6.670;2022-11-15T14:09:02;14.00;99.90
15481;DHT22;7842;50.904;6.670;2022-11-15T14:11:27;13.90;99.90
15481;DHT22;7842;50.904;6.670;2022-11-15T14:14:12;14.10;99.90
15481;DHT22;7842;50.904;6.670;2022-11-15T14:16:44;13.90;99.90
15481;DHT22;7842;50.904;6.670;2022-11-15T14:19:33;14.10;99.90
15481;DHT22;7842;50.904;6.670;2022-11-15T14:27:31;14.00;99.90
15481;DHT22;7842;50.904;6.670;2022-11-15T14:29:57;14.00;99.90
15481;DHT22;7842;50.904;6.670;2022-11-15T14:32:25;14.10;99.90
15481;DHT22;7842;50.904;6.670;2022-11-15T14:34:56;14.00;99.90
15481;DHT22;7842;50.904;6.670;2022-11-15T14:37:24;14.00;99.90
15481;DHT22;7842;50.904;6.670;2022-11-15T14:39:50;14.00;99.90
15481;DHT22;7842;50.904;6.670;2022-11-15T14:42:17;14.10;99.90
15481;DHT22;7842;50.904;6.670;2022-11-15T14:44:43;14.20;99.90
15481;DHT22;7842;50.904;6.670;2022-11-15T14:47:08;14.10;99.90
15481;DHT22;7842;50.904;6.670;2022-11-15T14:49:34;14.10;99.90
15481;DHT22;7842;50.904;6.670;2022-11-15T14:51:59;14.20;99.90
15481;DHT22;7842;50.904;6.670;2022-11-15T14:54:25;14.10;99.90
15481;DHT22;7842;50.904;6.670;2022-11-15T14:56:50;14.10;99.90
15481;DHT22;7842;50.904;6.670;2022-11-15T14:59:16;14.10;99.90
15481;DHT22;7842;50.904;6.670;2022-11-15T15:01:41;14.10;99.90
15481;DHT22;7842;50.904;6.670;2022-11-15T15:04:09;14.20;99.90
15481;DHT22;7842;50.904;6.670;2022-11-15T15:06:35;14.10;99.90
15481;DHT22;7842;50.904;6.670;2022-11-15T15:09:01;14.10;99.90
15481;DHT22;7842;50.904;6.670;2022-11-15T15:11:28;14.10;99.90
15481;DHT22;7842;50.904;6.670;2022-11-15T15:13:55;14.20;99.90
15481;DHT22;7842;50.904;6.670;2022-11-15T15:16:26;14.20;99.90
15481;DHT22;7842;50.904;6.670;2022-11-15T15:18:51;14.00;99.90
15481;DHT22;7842;50.904;6.670;2022-11-15T15:23:48;13.90;99.90
15481;DHT22;7842;50.904;6.670;2022-11-15T15:26:14;13.90;99.90
15481;DHT22;7842;50.904;6.670;2022-11-15T15:28:40;13.90;99.90
15481;DHT22;7842;50.904;6.670;2022-11-15T15:31:05;14.10;99.90
15481;DHT22;7842;50.904;6.670;2022-11-15T15:33:32;13.80;99.90
15481;DHT22;7842;50.904;6.670;2022-11-15T15:35:57;14.00;99.90
15481;DHT22;7842;50.904;6.670;2022-11-15T15:38:24;13.80;99.90
15481;DHT22;7842;50.904;6.670;2022-11-15T15:40:50;13.80;99.90
15481;DHT22;7842;50.904;6.670;2022-11-15T15:43:15;13.80;99.90
15481;DHT22;7842;50.904;6.670;2022-11-15T15:45:41;13.70;99.90
15481;DHT22;7842;50.904;6.670;2022-11-15T15:48:12;13.90;99.90
15481;DHT22;7842;50.904;6.670;2022-11-15T15:50:38;13.70;99.90
15481;DHT22;7842;50.904;6.670;2022-11-15T15:53:04;13.70;99.90
15481;DHT22;7842;50.904;6.670;2022-11-15T15:55:30;13.70;99.90
15481;DHT22;7842;50.904;6.670;2022-11-15T15:57:56;13.60;99.90
15481;DHT22;7842;50.904;6.670;2022-11-15T16:00:23;13.60;99.90
15481;DHT22;7842;50.904;6.670;2022-11-15T16:02:50;13.60;99.90
15481;DHT22;7842;50.904;6.670;2022-11-15T16:05:17;13.60;99.90
15481;DHT22;7842;50.904;6.670;2022-11-15T16:07:45;13.50;99.90
15481;DHT22;7842;50.904;6.670;2022-11-15T16:10:19;13.50;99.90
15481;DHT22;7842;50.904;6.670;2022-11-15T16:12:44;13.50;99.90
15481;DHT22;7842;50.904;6.670;2022-11-15T16:15:10;13.50;99.90
15481;DHT22;7842;50.904;6.670;2022-11-15T16:17:52;13.40;99.90
15481;DHT22;7842;50.904;6.670;2022-11-15T16:20:38;13.50;99.90
15481;DHT22;7842;50.904;6.670;2022-11-15T16:23:09;13.50;99.90
15481;DHT22;7842;50.904;6.670;2022-11-15T16:25:46;13.50;99.90
15481;DHT22;7842;50.904;6.670;2022-11-15T16:28:20;13.50;99.90
15481;DHT22;7842;50.904;6.670;2022-11-15T16:30:46;13.50;99.90
15481;DHT22;7842;50.904;6.670;2022-11-15T16:33:12;13.50;99.90
15481;DHT22;7842;50.904;6.670;2022-11-15T16:35:37;13.50;99.90
15481;DHT22;7842;50.904;6.670;2022-11-15T16:38:03;13.50;99.90
15481;DHT22;7842;50.904;6.670;2022-11-15T16:40:31;13.50;99.90
15481;DHT22;7842;50.904;6.670;2022-11-15T16:42:57;13.50;99.90
15481;DHT22;7842;50.904;6.670;2022-11-15T16:45:25;13.40;99.90
15481;DHT22;7842;50.904;6.670;2022-11-15T16:47:52;13.40;99.90
15481;DHT22;7842;50.904;6.670;2022-11-15T16:50:24;13.40;99.90
15481;DHT22;7842;50.904;6.670;2022-11-15T16:52:55;13.40;99.90
15481;DHT22;7842;50.904;6.670;2022-11-15T16:55:23;13.40;99.90
15481;DHT22;7842;50.904;6.670;2022-11-15T16:57:49;13.40;99.90
15481;DHT22;7842;50.904;6.670;2022-11-15T17:00:16;13.40;99.90
15481;DHT22;7842;50.904;6.670;2022-11-15T17:02:51;13.40;99.90
15481;DHT22;7842;50.904;6.670;2022-11-15T17:05:19;13.40;99.90
15481;DHT22;7842;50.904;6.670;2022-11-15T17:07:47;13.30;99.90
15481;DHT22;7842;50.904;6.670;2022-11-15T17:10:19;13.40;99.90
15481;DHT22;7842;50.904;6.670;2022-11-15T17:12:45;13.20;99.90
15481;DHT22;7842;50.904;6.670;2022-11-15T17:15:12;13.20;99.90
15481;DHT22;7842;50.904;6.670;2022-11-15T17:17:39;13.20;99.90
15481;DHT22;7842;50.904;6.670;2022-11-15T17:20:06;13.10;99.90
15481;DHT22;7842;50.904;6.670;2022-11-15T17:22:37;13.10;99.90
15481;DHT22;7842;50.904;6.670;2022-11-15T17:25:03;13.10;99.90
15481;DHT22;7842;50.904;6.670;2022-11-15T17:27:29;13.00;99.90
15481;DHT22;7842;50.904;6.670;2022-11-15T17:29:55;12.90;99.90
15481;DHT22;7842;50.904;6.670;2022-11-15T17:32:21;12.90;99.90
15481;DHT22;7842;50.904;6.670;2022-11-15T17:34:47;12.80;99.90
15481;DHT22;7842;50.904;6.670;2022-11-15T17:37:12;12.80;99.90
15481;DHT22;7842;50.904;6.670;2022-11-15T17:39:38;12.80;99.90
15481;DHT22;7842;50.904;6.670;2022-11-15T17:42:04;12.70;99.90
15481;DHT22;7842;50.904;6.670;2022-11-15T17:44:30;12.70;99.90
15481;DHT22;7842;50.904;6.670;2022-11-15T17:46:56;12.60;99.90
15481;DHT22;7842;50.904;6.670;2022-11-15T17:49:22;12.50;99.90
15481;DHT22;7842;50.904;6.670;2022-11-15T17:51:48;12.50;99.90
15481;DHT22;7842;50.904;6.670;2022-11-15T17:54:13;12.50;99.90
15481;DHT22;7842;50.904;6.670;2022-11-15T17:56:40;12.40;99.90